sensor_id;sensor_type;location;lat;lon;timestamp;P1;durP1;ratioP1;P2;durP2;ratioP2
76377;SDS011;65200;49.500;8.654;2023-04-03T00:01:43;3.28;;;2.60;;
76377;SDS011;65200;49.500;8.654;2023-04-03T00:04:10;4.22;;;2.80;;
76377;SDS011;65200;49.500;8.654;2023-04-03T00:06:38;4.03;;;2.90;;
76377;SDS011;65200;49.500;8.654;2023-04-03T00:09:04;2.72;;;2.40;;
76377;SDS011;65200;49.500;8.654;2023-04-03T00:11:31;3.55;;;2.83;;
76377;SDS011;65200;49.500;8.654;2023-04-03T00:13:57;6.72;;;2.70;;
76377;SDS011;65200;49.500;8.654;2023-04-03T00:16:23;3.33;;;3.03;;
76377;SDS011;65200;49.500;8.654;2023-04-03T00:18:50;3.88;;;2.53;;
76377;SDS011;65200;49.500;8.654;2023-04-03T00:21:16;3.40;;;2.42;;
76377;SDS011;65200;49.500;8.654;2023-04-03T00:23:44;5.35;;;3.10;;
76377;SDS011;65200;49.500;8.654;2023-04-03T00:26:11;4.32;;;3.35;;
76377;SDS011;65200;49.500;8.654;2023-04-03T00:28:37;4.78;;;4.38;;
76377;SDS011;65200;49.500;8.654;2023-04-03T00:31:04;4.15;;;2.85;;
76377;SDS011;65200;49.500;8.654;2023-04-03T00:33:30;4.22;;;2.95;;
76377;SDS011;65200;49.500;8.654;2023-04-03T00:35:57;3.80;;;2.75;;
76377;SDS011;65200;49.500;8.654;2023-04-03T00:38:23;4.05;;;3.00;;
76377;SDS011;65200;49.500;8.654;2023-04-03T00:40:51;3.53;;;2.83;;
76377;SDS011;65200;49.500;8.654;2023-04-03T00:43:18;3.53;;;2.53;;
76377;SDS011;65200;49.500;8.654;2023-04-03T00:48:14;3.63;;;2.42;;
76377;SDS011;65200;49.500;8.654;2023-04-03T00:50:43;3.70;;;3.05;;
76377;SDS011;65200;49.500;8.654;2023-04-03T00:53:11;4.65;;;2.83;;
76377;SDS011;65200;49.500;8.654;2023-04-03T00:55:40;3.00;;;2.70;;
76377;SDS011;65200;49.500;8.654;2023-04-03T00:58:09;4.13;;;3.05;;
76377;SDS011;65200;49.500;8.654;2023-04-03T01:00:37;4.10;;;2.95;;
76377;SDS011;65200;49.500;8.654;2023-04-03T01:03:07;4.53;;;3.03;;
76377;SDS011;65200;49.500;8.654;2023-04-03T01:05:34;5.18;;;3.22;;
76377;SDS011;65200;49.500;8.654;2023-04-03T01:08:01;3.22;;;2.58;;
76377;SDS011;65200;49.500;8.654;2023-04-03T01:10:27;3.58;;;2.67;;
76377;SDS011;65200;49.500;8.654;2023-04-03T01:12:54;4.63;;;3.67;;
76377;SDS011;65200;49.500;8.654;2023-04-03T01:15:23;2.70;;;2.33;;
76377;SDS011;65200;49.500;8.654;2023-04-03T01:17:51;4.82;;;3.03;;
76377;SDS011;65200;49.500;8.654;2023-04-03T01:20:42;4.60;;;3.30;;
76377;SDS011;65200;49.500;8.654;2023-04-03T01:23:32;2.78;;;2.33;;
76377;SDS011;65200;49.500;8.654;2023-04-03T01:26:10;2.95;;;2.30;;
76377;SDS011;65200;49.500;8.654;2023-04-03T01:28:37;4.45;;;3.25;;
76377;SDS011;65200;49.500;8.654;2023-04-03T01:31:08;3.30;;;2.47;;
76377;SDS011;65200;49.500;8.654;2023-04-03T01:33:43;4.57;;;3.60;;
76377;SDS011;65200;49.500;8.654;2023-04-03T01:36:12;2.95;;;2.58;;
76377;SDS011;65200;49.500;8.654;2023-04-03T01:38:40;3.42;;;2.67;;
76377;SDS011;65200;49.500;8.654;2023-04-03T01:41:07;5.18;;;2.58;;
76377;SDS011;65200;49.500;8.654;2023-04-03T01:43:33;4.97;;;2.45;;
76377;SDS011;65200;49.500;8.654;2023-04-03T01:46:00;3.28;;;2.97;;
76377;SDS011;65200;49.500;8.654;2023-04-03T01:48:26;4.90;;;2.88;;
76377;SDS011;65200;49.500;8.654;2023-04-03T01:50:54;3.08;;;2.58;;
76377;SDS011;65200;49.500;8.654;2023-04-03T01:53:20;3.25;;;2.53;;
76377;SDS011;65200;49.500;8.654;2023-04-03T01:55:47;5.50;;;2.53;;
76377;SDS011;65200;49.500;8.654;2023-04-03T01:58:14;4.40;;;3.00;;
76377;SDS011;65200;49.500;8.654;2023-04-03T02:00:40;2.95;;;2.65;;
76377;SDS011;65200;49.500;8.654;2023-04-03T02:03:07;3.20;;;2.90;;
76377;SDS011;65200;49.500;8.654;2023-04-03T02:05:33;5.88;;;2.95;;
76377;SDS011;65200;49.500;8.654;2023-04-03T02:08:01;3.25;;;2.95;;
76377;SDS011;65200;49.500;8.654;2023-04-03T02:10:27;2.97;;;2.35;;
76377;SDS011;65200;49.500;8.654;2023-04-03T02:12:54;3.95;;;2.92;;
76377;SDS011;65200;49.500;8.654;2023-04-03T02:15:20;3.40;;;3.10;;
76377;SDS011;65200;49.500;8.654;2023-04-03T02:17:47;4.60;;;3.28;;
76377;SDS011;65200;49.500;8.654;2023-04-03T02:20:13;3.85;;;3.38;;
76377;SDS011;65200;49.500;8.654;2023-04-03T02:22:39;4.60;;;2.70;;
76377;SDS011;65200;49.500;8.654;2023-04-03T02:25:08;3.30;;;2.42;;
76377;SDS011;65200;49.500;8.654;2023-04-03T02:27:35;2.88;;;2.58;;
76377;SDS011;65200;49.500;8.654;2023-04-03T02:30:02;2.90;;;2.60;;
76377;SDS011;65200;49.500;8.654;2023-04-03T02:32:28;3.38;;;2.78;;
76377;SDS011;65200;49.500;8.654;2023-04-03T02:34:55;3.22;;;2.33;;
76377;SDS011;65200;49.500;8.654;2023-04-03T02:37:22;3.75;;;2.50;;
76377;SDS011;65200;49.500;8.654;2023-04-03T02:39:48;3.65;;;2.95;;
76377;SDS011;65200;49.500;8.654;2023-04-03T02:42:16;5.55;;;2.53;;
76377;SDS011;65200;49.500;8.654;2023-04-03T02:44:42;3.35;;;2.70;;
76377;SDS011;65200;49.500;8.654;2023-04-03T02:47:09;3.42;;;2.80;;
76377;SDS011;65200;49.500;8.654;2023-04-03T02:49:35;5.82;;;5.32;;
76377;SDS011;65200;49.500;8.654;2023-04-03T02:52:02;3.45;;;2.72;;
76377;SDS011;65200;49.500;8.654;2023-04-03T02:54:28;3.60;;;2.83;;
76377;SDS011;65200;49.500;8.654;2023-04-03T02:56:56;3.65;;;3.10;;
76377;SDS011;65200;49.500;8.654;2023-04-03T02:59:24;4.05;;;3.13;;
76377;SDS011;65200;49.500;8.654;2023-04-03T03:01:50;6.78;;;3.22;;
76377;SDS011;65200;49.500;8.654;2023-04-03T03:04:17;5.25;;;3.13;;
76377;SDS011;65200;49.500;8.654;2023-04-03T03:06:43;3.00;;;2.60;;
76377;SDS011;65200;49.500;8.654;2023-04-03T03:09:10;5.72;;;2.42;;
76377;SDS011;65200;49.500;8.654;2023-04-03T03:11:38;3.38;;;2.95;;
76377;SDS011;65200;49.500;8.654;2023-04-03T03:14:04;5.05;;;3.22;;
76377;SDS011;65200;49.500;8.654;2023-04-03T03:16:32;3.63;;;2.58;;
76377;SDS011;65200;49.500;8.654;2023-04-03T03:18:59;4.30;;;3.90;;
76377;SDS011;65200;49.500;8.654;2023-04-03T03:21:25;4.45;;;2.95;;
76377;SDS011;65200;49.500;8.654;2023-04-03T03:23:52;6.60;;;2.83;;
76377;SDS011;65200;49.500;8.654;2023-04-03T03:26:18;4.25;;;2.95;;
76377;SDS011;65200;49.500;8.654;2023-04-03T03:28:45;5.03;;;2.53;;
76377;SDS011;65200;49.500;8.654;2023-04-03T03:31:11;4.57;;;3.53;;
76377;SDS011;65200;49.500;8.654;2023-04-03T03:33:39;3.67;;;3.30;;
76377;SDS011;65200;49.500;8.654;2023-04-03T03:36:05;6.20;;;3.20;;
76377;SDS011;65200;49.500;8.654;2023-04-03T03:38:32;5.13;;;4.63;;
76377;SDS011;65200;49.500;8.654;2023-04-03T03:40:59;3.90;;;3.08;;
76377;SDS011;65200;49.500;8.654;2023-04-03T03:43:25;5.13;;;2.80;;
76377;SDS011;65200;49.500;8.654;2023-04-03T03:45:52;5.43;;;3.10;;
76377;SDS011;65200;49.500;8.654;2023-04-03T03:48:19;3.88;;;3.03;;
76377;SDS011;65200;49.500;8.654;2023-04-03T03:50:48;3.17;;;2.65;;
76377;SDS011;65200;49.500;8.654;2023-04-03T03:53:15;3.05;;;2.45;;
76377;SDS011;65200;49.500;8.654;2023-04-03T03:55:41;5.32;;;3.42;;
76377;SDS011;65200;49.500;8.654;2023-04-03T03:58:08;3.83;;;2.83;;
76377;SDS011;65200;49.500;8.654;2023-04-03T04:00:35;5.93;;;5.47;;
76377;SDS011;65200;49.500;8.654;2023-04-03T04:03:01;5.57;;;2.88;;
76377;SDS011;65200;49.500;8.654;2023-04-03T04:05:27;7.57;;;3.20;;
76377;SDS011;65200;49.500;8.654;2023-04-03T04:07:55;5.85;;;2.83;;
76377;SDS011;65200;49.500;8.654;2023-04-03T04:10:22;4.25;;;3.38;;
76377;SDS011;65200;49.500;8.654;2023-04-03T04:12:48;4.75;;;3.38;;
76377;SDS011;65200;49.500;8.654;2023-04-03T04:15:16;4.35;;;3.03;;
76377;SDS011;65200;49.500;8.654;2023-04-03T04:17:42;3.50;;;3.05;;
76377;SDS011;65200;49.500;8.654;2023-04-03T04:20:09;3.88;;;3.22;;
76377;SDS011;65200;49.500;8.654;2023-04-03T04:22:36;4.70;;;2.78;;
76377;SDS011;65200;49.500;8.654;2023-04-03T04:25:05;5.13;;;3.10;;
76377;SDS011;65200;49.500;8.654;2023-04-03T04:27:32;3.58;;;2.78;;
76377;SDS011;65200;49.500;8.654;2023-04-03T04:29:58;4.63;;;3.42;;
76377;SDS011;65200;49.500;8.654;2023-04-03T04:32:25;3.33;;;2.60;;
76377;SDS011;65200;49.500;8.654;2023-04-03T04:34:52;4.57;;;2.90;;
76377;SDS011;65200;49.500;8.654;2023-04-03T04:37:18;4.05;;;3.08;;
76377;SDS011;65200;49.500;8.654;2023-04-03T04:39:45;4.65;;;3.30;;
76377;SDS011;65200;49.500;8.654;2023-04-03T04:42:12;4.78;;;3.08;;
76377;SDS011;65200;49.500;8.654;2023-04-03T04:44:40;4.40;;;3.58;;
76377;SDS011;65200;49.500;8.654;2023-04-03T04:47:06;4.68;;;4.00;;
76377;SDS011;65200;49.500;8.654;2023-04-03T04:49:33;4.25;;;2.75;;
76377;SDS011;65200;49.500;8.654;2023-04-03T04:51:59;4.57;;;3.58;;
76377;SDS011;65200;49.500;8.654;2023-04-03T04:54:26;5.32;;;3.92;;
76377;SDS011;65200;49.500;8.654;2023-04-03T04:56:52;8.95;;;3.40;;
76377;SDS011;65200;49.500;8.654;2023-04-03T04:59:20;3.78;;;3.17;;
76377;SDS011;65200;49.500;8.654;2023-04-03T05:01:46;3.05;;;2.75;;
76377;SDS011;65200;49.500;8.654;2023-04-03T05:04:13;4.07;;;3.22;;
76377;SDS011;65200;49.500;8.654;2023-04-03T05:06:40;4.40;;;3.22;;
76377;SDS011;65200;49.500;8.654;2023-04-03T05:09:06;5.95;;;3.22;;
76377;SDS011;65200;49.500;8.654;2023-04-03T05:11:33;3.63;;;2.45;;
76377;SDS011;65200;49.500;8.654;2023-04-03T05:14:00;3.75;;;2.92;;
76377;SDS011;65200;49.500;8.654;2023-04-03T05:16:28;3.20;;;2.67;;
76377;SDS011;65200;49.500;8.654;2023-04-03T05:18:54;4.78;;;2.80;;
76377;SDS011;65200;49.500;8.654;2023-04-03T05:21:21;3.95;;;3.20;;
76377;SDS011;65200;49.500;8.654;2023-04-03T05:23:51;5.72;;;2.72;;
76377;SDS011;65200;49.500;8.654;2023-04-03T05:26:18;3.65;;;2.85;;
76377;SDS011;65200;49.500;8.654;2023-04-03T05:28:45;5.50;;;2.60;;
76377;SDS011;65200;49.500;8.654;2023-04-03T05:31:12;3.17;;;2.88;;
76377;SDS011;65200;49.500;8.654;2023-04-03T05:33:40;3.58;;;2.90;;
76377;SDS011;65200;49.500;8.654;2023-04-03T05:36:07;4.53;;;2.78;;
76377;SDS011;65200;49.500;8.654;2023-04-03T05:38:34;3.80;;;2.78;;
76377;SDS011;65200;49.500;8.654;2023-04-03T05:41:00;5.28;;;3.10;;
76377;SDS011;65200;49.500;8.654;2023-04-03T05:43:27;5.05;;;3.60;;
76377;SDS011;65200;49.500;8.654;2023-04-03T05:45:53;6.35;;;3.83;;
76377;SDS011;65200;49.500;8.654;2023-04-03T05:48:20;9.48;;;4.93;;
76377;SDS011;65200;49.500;8.654;2023-04-03T05:50:48;12.25;;;6.18;;
76377;SDS011;65200;49.500;8.654;2023-04-03T05:53:15;14.90;;;6.95;;
76377;SDS011;65200;49.500;8.654;2023-04-03T05:55:47;8.93;;;5.72;;
76377;SDS011;65200;49.500;8.654;2023-04-03T05:58:13;6.05;;;4.50;;
76377;SDS011;65200;49.500;8.654;2023-04-03T06:00:40;6.63;;;3.63;;
76377;SDS011;65200;49.500;8.654;2023-04-03T06:03:06;3.85;;;3.45;;
76377;SDS011;65200;49.500;8.654;2023-04-03T06:05:33;4.22;;;3.10;;
76377;SDS011;65200;49.500;8.654;2023-04-03T06:08:01;4.70;;;3.65;;
76377;SDS011;65200;49.500;8.654;2023-04-03T06:10:28;4.95;;;2.88;;
76377;SDS011;65200;49.500;8.654;2023-04-03T06:12:54;4.55;;;3.17;;
76377;SDS011;65200;49.500;8.654;2023-04-03T06:15:21;3.63;;;3.13;;
76377;SDS011;65200;49.500;8.654;2023-04-03T06:17:47;9.30;;;3.70;;
76377;SDS011;65200;49.500;8.654;2023-04-03T06:20:15;7.13;;;3.95;;
76377;SDS011;65200;49.500;8.654;2023-04-03T06:22:42;3.83;;;3.40;;
76377;SDS011;65200;49.500;8.654;2023-04-03T06:25:10;4.47;;;3.30;;
76377;SDS011;65200;49.500;8.654;2023-04-03T06:27:37;6.28;;;3.60;;
76377;SDS011;65200;49.500;8.654;2023-04-03T06:30:04;5.10;;;3.78;;
76377;SDS011;65200;49.500;8.654;2023-04-03T06:32:32;5.60;;;3.50;;
76377;SDS011;65200;49.500;8.654;2023-04-03T06:34:59;6.05;;;3.10;;
76377;SDS011;65200;49.500;8.654;2023-04-03T06:37:25;4.25;;;3.38;;
76377;SDS011;65200;49.500;8.654;2023-04-03T06:39:53;8.48;;;5.32;;
76377;SDS011;65200;49.500;8.654;2023-04-03T06:42:21;5.00;;;3.58;;
76377;SDS011;65200;49.500;8.654;2023-04-03T06:44:48;4.78;;;3.63;;
76377;SDS011;65200;49.500;8.654;2023-04-03T06:47:15;5.45;;;3.53;;
76377;SDS011;65200;49.500;8.654;2023-04-03T06:49:42;4.88;;;3.28;;
76377;SDS011;65200;49.500;8.654;2023-04-03T06:52:10;6.18;;;3.75;;
76377;SDS011;65200;49.500;8.654;2023-04-03T06:54:37;6.80;;;3.45;;
76377;SDS011;65200;49.500;8.654;2023-04-03T06:57:04;7.57;;;3.95;;
76377;SDS011;65200;49.500;8.654;2023-04-03T06:59:32;6.30;;;3.38;;
76377;SDS011;65200;49.500;8.654;2023-04-03T07:01:58;4.30;;;3.55;;
76377;SDS011;65200;49.500;8.654;2023-04-03T07:04:25;6.13;;;3.35;;
76377;SDS011;65200;49.500;8.654;2023-04-03T07:06:52;5.13;;;3.00;;
76377;SDS011;65200;49.500;8.654;2023-04-03T07:09:18;3.90;;;3.30;;
76377;SDS011;65200;49.500;8.654;2023-04-03T07:11:46;4.65;;;3.47;;
76377;SDS011;65200;49.500;8.654;2023-04-03T07:14:12;8.30;;;3.03;;
76377;SDS011;65200;49.500;8.654;2023-04-03T07:16:40;3.35;;;2.70;;
76377;SDS011;65200;49.500;8.654;2023-04-03T07:19:06;4.90;;;2.83;;
76377;SDS011;65200;49.500;8.654;2023-04-03T07:21:33;5.85;;;3.30;;
76377;SDS011;65200;49.500;8.654;2023-04-03T07:24:00;5.40;;;2.80;;
76377;SDS011;65200;49.500;8.654;2023-04-03T07:26:27;5.07;;;3.72;;
76377;SDS011;65200;49.500;8.654;2023-04-03T07:28:53;3.92;;;3.45;;
76377;SDS011;65200;49.500;8.654;2023-04-03T07:31:20;6.72;;;2.78;;
76377;SDS011;65200;49.500;8.654;2023-04-03T07:33:47;4.15;;;3.05;;
76377;SDS011;65200;49.500;8.654;2023-04-03T07:36:15;5.72;;;3.15;;
76377;SDS011;65200;49.500;8.654;2023-04-03T07:38:43;6.20;;;3.10;;
76377;SDS011;65200;49.500;8.654;2023-04-03T07:41:11;4.35;;;2.95;;
76377;SDS011;65200;49.500;8.654;2023-04-03T07:43:39;3.92;;;3.40;;
76377;SDS011;65200;49.500;8.654;2023-04-03T07:46:07;3.90;;;2.67;;
76377;SDS011;65200;49.500;8.654;2023-04-03T07:48:34;4.20;;;2.85;;
76377;SDS011;65200;49.500;8.654;2023-04-03T07:51:02;3.92;;;2.78;;
76377;SDS011;65200;49.500;8.654;2023-04-03T07:53:30;4.93;;;3.33;;
76377;SDS011;65200;49.500;8.654;2023-04-03T07:55:57;3.85;;;2.45;;
76377;SDS011;65200;49.500;8.654;2023-04-03T07:58:24;3.97;;;2.75;;
76377;SDS011;65200;49.500;8.654;2023-04-03T08:00:51;3.33;;;2.70;;
76377;SDS011;65200;49.500;8.654;2023-04-03T08:03:18;5.20;;;2.50;;
76377;SDS011;65200;49.500;8.654;2023-04-03T08:05:46;6.00;;;2.90;;
76377;SDS011;65200;49.500;8.654;2023-04-03T08:08:16;5.97;;;2.38;;
76377;SDS011;65200;49.500;8.654;2023-04-03T08:10:47;5.05;;;3.17;;
76377;SDS011;65200;49.500;8.654;2023-04-03T08:13:15;3.50;;;2.35;;
76377;SDS011;65200;49.500;8.654;2023-04-03T08:15:41;5.60;;;2.92;;
76377;SDS011;65200;49.500;8.654;2023-04-03T08:18:08;4.85;;;2.70;;
76377;SDS011;65200;49.500;8.654;2023-04-03T08:20:35;4.63;;;2.67;;
76377;SDS011;65200;49.500;8.654;2023-04-03T08:23:01;4.78;;;2.50;;
76377;SDS011;65200;49.500;8.654;2023-04-03T08:25:29;6.50;;;2.50;;
76377;SDS011;65200;49.500;8.654;2023-04-03T08:27:56;8.60;;;2.60;;
76377;SDS011;65200;49.500;8.654;2023-04-03T08:30:23;3.50;;;2.40;;
76377;SDS011;65200;49.500;8.654;2023-04-03T08:32:50;3.22;;;2.20;;
76377;SDS011;65200;49.500;8.654;2023-04-03T08:35:16;4.88;;;4.18;;
76377;SDS011;65200;49.500;8.654;2023-04-03T08:37:44;4.97;;;2.78;;
76377;SDS011;65200;49.500;8.654;2023-04-03T08:40:12;3.60;;;2.78;;
76377;SDS011;65200;49.500;8.654;2023-04-03T08:42:45;3.55;;;2.65;;
76377;SDS011;65200;49.500;8.654;2023-04-03T08:45:21;6.07;;;2.95;;
76377;SDS011;65200;49.500;8.654;2023-04-03T08:47:55;4.10;;;2.63;;
76377;SDS011;65200;49.500;8.654;2023-04-03T08:50:28;3.95;;;2.38;;
76377;SDS011;65200;49.500;8.654;2023-04-03T08:52:59;3.95;;;2.30;;
76377;SDS011;65200;49.500;8.654;2023-04-03T08:55:31;2.75;;;1.95;;
76377;SDS011;65200;49.500;8.654;2023-04-03T08:58:01;3.08;;;2.20;;
76377;SDS011;65200;49.500;8.654;2023-04-03T09:00:31;5.85;;;2.30;;
76377;SDS011;65200;49.500;8.654;2023-04-03T09:03:11;3.58;;;2.30;;
76377;SDS011;65200;49.500;8.654;2023-04-03T09:05:39;12.80;;;2.75;;
76377;SDS011;65200;49.500;8.654;2023-04-03T09:08:13;5.28;;;2.75;;
76377;SDS011;65200;49.500;8.654;2023-04-03T09:10:47;2.88;;;1.98;;
76377;SDS011;65200;49.500;8.654;2023-04-03T09:15:49;3.75;;;2.20;;
76377;SDS011;65200;49.500;8.654;2023-04-03T09:18:16;2.20;;;1.90;;
76377;SDS011;65200;49.500;8.654;2023-04-03T09:20:49;6.22;;;3.22;;
76377;SDS011;65200;49.500;8.654;2023-04-03T09:23:24;3.28;;;2.13;;
76377;SDS011;65200;49.500;8.654;2023-04-03T09:25:57;5.55;;;2.67;;
76377;SDS011;65200;49.500;8.654;2023-04-03T09:28:32;3.20;;;1.77;;
76377;SDS011;65200;49.500;8.654;2023-04-03T09:31:01;3.92;;;2.13;;
76377;SDS011;65200;49.500;8.654;2023-04-03T09:33:36;2.45;;;1.77;;
76377;SDS011;65200;49.500;8.654;2023-04-03T09:36:02;2.50;;;1.88;;
76377;SDS011;65200;49.500;8.654;2023-04-03T09:38:30;3.17;;;1.98;;
76377;SDS011;65200;49.500;8.654;2023-04-03T09:41:03;3.78;;;3.08;;
76377;SDS011;65200;49.500;8.654;2023-04-03T09:43:32;2.38;;;2.10;;
76377;SDS011;65200;49.500;8.654;2023-04-03T09:46:28;2.65;;;1.90;;
76377;SDS011;65200;49.500;8.654;2023-04-03T09:48:57;2.75;;;1.73;;
76377;SDS011;65200;49.500;8.654;2023-04-03T09:51:25;3.15;;;2.08;;
76377;SDS011;65200;49.500;8.654;2023-04-03T09:53:53;2.67;;;2.35;;
76377;SDS011;65200;49.500;8.654;2023-04-03T09:56:22;3.20;;;1.90;;
76377;SDS011;65200;49.500;8.654;2023-04-03T09:58:53;3.10;;;1.90;;
76377;SDS011;65200;49.500;8.654;2023-04-03T10:01:34;3.05;;;2.05;;
76377;SDS011;65200;49.500;8.654;2023-04-03T10:04:02;2.33;;;1.80;;
76377;SDS011;65200;49.500;8.654;2023-04-03T10:06:31;2.75;;;2.13;;
76377;SDS011;65200;49.500;8.654;2023-04-03T10:09:00;4.40;;;2.28;;
76377;SDS011;65200;49.500;8.654;2023-04-03T10:11:29;3.05;;;2.20;;
76377;SDS011;65200;49.500;8.654;2023-04-03T10:13:57;2.92;;;1.83;;
76377;SDS011;65200;49.500;8.654;2023-04-03T10:16:27;4.93;;;2.20;;
76377;SDS011;65200;49.500;8.654;2023-04-03T10:19:03;3.63;;;1.85;;
76377;SDS011;65200;49.500;8.654;2023-04-03T10:21:40;4.13;;;2.30;;
76377;SDS011;65200;49.500;8.654;2023-04-03T10:24:14;2.88;;;2.17;;
76377;SDS011;65200;49.500;8.654;2023-04-03T10:26:49;3.95;;;2.00;;
76377;SDS011;65200;49.500;8.654;2023-04-03T10:29:34;4.35;;;2.13;;
76377;SDS011;65200;49.500;8.654;2023-04-03T10:32:10;2.80;;;1.75;;
76377;SDS011;65200;49.500;8.654;2023-04-03T10:34:49;4.60;;;2.10;;
76377;SDS011;65200;49.500;8.654;2023-04-03T10:37:27;3.95;;;1.70;;
76377;SDS011;65200;49.500;8.654;2023-04-03T10:40:02;6.28;;;3.55;;
76377;SDS011;65200;49.500;8.654;2023-04-03T10:42:42;3.53;;;3.22;;
76377;SDS011;65200;49.500;8.654;2023-04-03T10:45:19;2.80;;;1.90;;
76377;SDS011;65200;49.500;8.654;2023-04-03T10:47:52;2.80;;;1.92;;
76377;SDS011;65200;49.500;8.654;2023-04-03T10:50:31;3.40;;;2.72;;
76377;SDS011;65200;49.500;8.654;2023-04-03T10:53:05;3.17;;;2.05;;
76377;SDS011;65200;49.500;8.654;2023-04-03T10:55:39;2.90;;;1.73;;
76377;SDS011;65200;49.500;8.654;2023-04-03T11:00:46;4.90;;;2.22;;
76377;SDS011;65200;49.500;8.654;2023-04-03T11:03:15;3.38;;;2.42;;
76377;SDS011;65200;49.500;8.654;2023-04-03T11:05:50;3.30;;;2.10;;
76377;SDS011;65200;49.500;8.654;2023-04-03T11:08:24;2.70;;;2.05;;
76377;SDS011;65200;49.500;8.654;2023-04-03T11:10:55;3.85;;;1.77;;
76377;SDS011;65200;49.500;8.654;2023-04-03T11:13:26;3.28;;;2.00;;
76377;SDS011;65200;49.500;8.654;2023-04-03T11:16:00;3.38;;;2.05;;
76377;SDS011;65200;49.500;8.654;2023-04-03T11:18:31;2.13;;;1.60;;
76377;SDS011;65200;49.500;8.654;2023-04-03T11:21:03;2.63;;;2.00;;
76377;SDS011;65200;49.500;8.654;2023-04-03T11:23:33;2.35;;;1.75;;
76377;SDS011;65200;49.500;8.654;2023-04-03T11:26:07;2.72;;;2.25;;
76377;SDS011;65200;49.500;8.654;2023-04-03T11:28:36;3.30;;;1.83;;
76377;SDS011;65200;49.500;8.654;2023-04-03T11:31:06;3.38;;;2.00;;
76377;SDS011;65200;49.500;8.654;2023-04-03T11:33:58;7.30;;;2.30;;
76377;SDS011;65200;49.500;8.654;2023-04-03T11:36:37;2.53;;;2.10;;
76377;SDS011;65200;49.500;8.654;2023-04-03T11:39:07;4.85;;;2.40;;
76377;SDS011;65200;49.500;8.654;2023-04-03T11:44:24;2.90;;;1.80;;
76377;SDS011;65200;49.500;8.654;2023-04-03T11:47:04;5.32;;;3.63;;
76377;SDS011;65200;49.500;8.654;2023-04-03T11:55:42;2.80;;;1.85;;
76377;SDS011;65200;49.500;8.654;2023-04-03T11:58:11;2.80;;;2.17;;
76377;SDS011;65200;49.500;8.654;2023-04-03T12:00:47;4.05;;;2.10;;
76377;SDS011;65200;49.500;8.654;2023-04-03T12:09:37;6.22;;;3.78;;
76377;SDS011;65200;49.500;8.654;2023-04-03T12:12:25;5.28;;;2.58;;
76377;SDS011;65200;49.500;8.654;2023-04-03T12:14:55;3.47;;;2.20;;
76377;SDS011;65200;49.500;8.654;2023-04-03T12:17:43;3.78;;;2.30;;
76377;SDS011;65200;49.500;8.654;2023-04-03T12:23:22;3.05;;;2.30;;
76377;SDS011;65200;49.500;8.654;2023-04-03T12:25:51;4.68;;;1.83;;
76377;SDS011;65200;49.500;8.654;2023-04-03T12:28:25;4.03;;;2.88;;
76377;SDS011;65200;49.500;8.654;2023-04-03T12:30:53;3.80;;;2.58;;
76377;SDS011;65200;49.500;8.654;2023-04-03T12:33:24;8.10;;;2.65;;
76377;SDS011;65200;49.500;8.654;2023-04-03T12:36:03;2.67;;;2.40;;
76377;SDS011;65200;49.500;8.654;2023-04-03T12:38:39;3.60;;;2.63;;
76377;SDS011;65200;49.500;8.654;2023-04-03T12:41:21;6.25;;;2.35;;
76377;SDS011;65200;49.500;8.654;2023-04-03T12:44:00;4.20;;;2.20;;
76377;SDS011;65200;49.500;8.654;2023-04-03T12:46:35;2.92;;;2.15;;
76377;SDS011;65200;49.500;8.654;2023-04-03T12:49:12;2.83;;;2.22;;
76377;SDS011;65200;49.500;8.654;2023-04-03T12:51:52;4.20;;;2.25;;
76377;SDS011;65200;49.500;8.654;2023-04-03T12:54:20;5.63;;;2.20;;
76377;SDS011;65200;49.500;8.654;2023-04-03T12:56:53;4.20;;;2.47;;
76377;SDS011;65200;49.500;8.654;2023-04-03T12:59:35;6.15;;;4.50;;
76377;SDS011;65200;49.500;8.654;2023-04-03T13:02:07;3.20;;;2.45;;
76377;SDS011;65200;49.500;8.654;2023-04-03T13:04:43;3.50;;;2.33;;
76377;SDS011;65200;49.500;8.654;2023-04-03T13:07:18;4.53;;;2.30;;
76377;SDS011;65200;49.500;8.654;2023-04-03T13:09:54;3.47;;;2.05;;
76377;SDS011;65200;49.500;8.654;2023-04-03T13:12:23;4.35;;;2.58;;
76377;SDS011;65200;49.500;8.654;2023-04-03T13:14:53;3.90;;;2.30;;
76377;SDS011;65200;49.500;8.654;2023-04-03T13:17:23;2.70;;;2.08;;
76377;SDS011;65200;49.500;8.654;2023-04-03T13:19:50;3.38;;;2.17;;
76377;SDS011;65200;49.500;8.654;2023-04-03T13:22:22;3.25;;;2.95;;
76377;SDS011;65200;49.500;8.654;2023-04-03T13:24:55;3.25;;;2.15;;
76377;SDS011;65200;49.500;8.654;2023-04-03T13:27:25;2.88;;;2.20;;
76377;SDS011;65200;49.500;8.654;2023-04-03T13:29:54;3.25;;;2.25;;
76377;SDS011;65200;49.500;8.654;2023-04-03T13:32:25;4.13;;;2.53;;
76377;SDS011;65200;49.500;8.654;2023-04-03T13:34:54;5.68;;;2.55;;
76377;SDS011;65200;49.500;8.654;2023-04-03T13:37:22;4.10;;;2.83;;
76377;SDS011;65200;49.500;8.654;2023-04-03T13:39:57;5.57;;;3.40;;
76377;SDS011;65200;49.500;8.654;2023-04-03T13:42:27;6.93;;;2.97;;
76377;SDS011;65200;49.500;8.654;2023-04-03T13:47:54;4.13;;;2.50;;
76377;SDS011;65200;49.500;8.654;2023-04-03T13:50:33;3.08;;;2.00;;
76377;SDS011;65200;49.500;8.654;2023-04-03T13:53:15;4.05;;;2.28;;
76377;SDS011;65200;49.500;8.654;2023-04-03T13:55:52;4.07;;;2.85;;
76377;SDS011;65200;49.500;8.654;2023-04-03T13:58:24;3.03;;;2.05;;
76377;SDS011;65200;49.500;8.654;2023-04-03T14:00:53;2.72;;;1.80;;
76377;SDS011;65200;49.500;8.654;2023-04-03T14:03:21;4.38;;;2.40;;
76377;SDS011;65200;49.500;8.654;2023-04-03T14:05:49;2.08;;;1.88;;
76377;SDS011;65200;49.500;8.654;2023-04-03T14:08:16;6.18;;;2.55;;
76377;SDS011;65200;49.500;8.654;2023-04-03T14:10:43;3.10;;;2.15;;
76377;SDS011;65200;49.500;8.654;2023-04-03T14:13:11;3.30;;;2.17;;
76377;SDS011;65200;49.500;8.654;2023-04-03T14:15:41;2.70;;;2.05;;
76377;SDS011;65200;49.500;8.654;2023-04-03T14:20:37;3.97;;;2.58;;
76377;SDS011;65200;49.500;8.654;2023-04-03T14:23:03;4.45;;;2.40;;
76377;SDS011;65200;49.500;8.654;2023-04-03T14:25:30;3.85;;;2.28;;
76377;SDS011;65200;49.500;8.654;2023-04-03T14:27:56;4.85;;;2.40;;
76377;SDS011;65200;49.500;8.654;2023-04-03T14:30:25;3.13;;;2.22;;
76377;SDS011;65200;49.500;8.654;2023-04-03T14:32:54;5.32;;;2.75;;
76377;SDS011;65200;49.500;8.654;2023-04-03T14:35:21;5.10;;;2.65;;
76377;SDS011;65200;49.500;8.654;2023-04-03T14:37:52;2.58;;;1.98;;
76377;SDS011;65200;49.500;8.654;2023-04-03T14:40:20;3.83;;;2.25;;
76377;SDS011;65200;49.500;8.654;2023-04-03T14:42:51;3.17;;;1.95;;
76377;SDS011;65200;49.500;8.654;2023-04-03T14:45:21;3.47;;;2.30;;
76377;SDS011;65200;49.500;8.654;2023-04-03T14:47:49;2.95;;;2.35;;
76377;SDS011;65200;49.500;8.654;2023-04-03T14:50:20;4.15;;;2.33;;
76377;SDS011;65200;49.500;8.654;2023-04-03T14:52:49;3.42;;;2.40;;
76377;SDS011;65200;49.500;8.654;2023-04-03T14:55:19;2.92;;;2.40;;
76377;SDS011;65200;49.500;8.654;2023-04-03T14:57:49;3.47;;;2.00;;
76377;SDS011;65200;49.500;8.654;2023-04-03T15:00:17;5.47;;;2.40;;
76377;SDS011;65200;49.500;8.654;2023-04-03T15:02:45;3.17;;;2.25;;
76377;SDS011;65200;49.500;8.654;2023-04-03T15:05:13;3.10;;;2.38;;
76377;SDS011;65200;49.500;8.654;2023-04-03T15:07:42;2.70;;;2.17;;
76377;SDS011;65200;49.500;8.654;2023-04-03T15:10:14;2.90;;;2.08;;
76377;SDS011;65200;49.500;8.654;2023-04-03T15:12:43;3.53;;;2.05;;
76377;SDS011;65200;49.500;8.654;2023-04-03T15:15:10;2.80;;;2.03;;
76377;SDS011;65200;49.500;8.654;2023-04-03T15:17:36;2.90;;;2.10;;
76377;SDS011;65200;49.500;8.654;2023-04-03T15:20:05;2.72;;;2.00;;
76377;SDS011;65200;49.500;8.654;2023-04-03T15:22:38;4.75;;;2.33;;
76377;SDS011;65200;49.500;8.654;2023-04-03T15:25:06;3.53;;;1.90;;
76377;SDS011;65200;49.500;8.654;2023-04-03T15:27:34;4.15;;;2.47;;
76377;SDS011;65200;49.500;8.654;2023-04-03T15:30:01;3.97;;;2.20;;
76377;SDS011;65200;49.500;8.654;2023-04-03T15:32:28;3.72;;;2.38;;